Time;durP1;ratioP1;P1;durP2;ratioP2;P2;SDS_P1;SDS_P2;PMS_P1;PMS_P2;Temp;Humidity;BMP_temperature;BMP_pressure;BME280_temperature;BME280_humidity;BME280_pressure;Samples;Min_cycle;Max_cycle;Signal;HPM_P1;HPM_P2
2021/10/25 00:01:04;;;;;;;29.15;14.45;;;;;;;;;;6245842;23;20130;-59
2021/10/25 00:03:30;;;;;;;37.38;17.30;;;;;;;;;;6245848;23;20032;-59
2021/10/25 00:05:55;;;;;;;62.35;23.02;;;;;;;;;;6245761;23;20015;-59
2021/10/25 00:08:21;;;;;;;45.13;18.77;;;;;;;;;;6245493;23;20000;-60
2021/10/25 00:10:46;;;;;;;38.88;16.63;;;;;;;;;;6245318;23;20012;-60
2021/10/25 00:13:12;;;;;;;50.80;20.08;;;;;;;;;;6245410;23;20286;-60
2021/10/25 00:15:38;;;;;;;52.88;21.25;;;;;;;;;;6245638;23;20009;-60
2021/10/25 00:18:06;;;;;;;92.82;30.75;;;;;;;;;;6245779;23;20019;-59
2021/10/25 00:20:32;;;;;;;83.97;26.58;;;;;;;;;;6245710;23;20012;-60
2021/10/25 00:22:58;;;;;;;66.63;23.90;;;;;;;;;;6245501;23;20000;-59
2021/10/25 00:25:24;;;;;;;65.32;22.92;;;;;;;;;;6245551;23;20091;-59
2021/10/25 00:27:49;;;;;;;59.60;22.55;;;;;;;;;;6245648;23;20078;-60
2021/10/25 00:30:15;;;;;;;65.32;25.17;;;;;;;;;;6245431;23;20008;-59
2021/10/25 00:32:41;;;;;;;75.68;30.38;;;;;;;;;;6218532;23;20376;-60
2021/10/25 00:35:07;;;;;;;68.53;27.80;;;;;;;;;;6245539;23;20000;-59
2021/10/25 00:37:35;;;;;;;74.18;29.92;;;;;;;;;;6245673;23;20082;-59
2021/10/25 00:40:01;;;;;;;55.90;24.05;;;;;;;;;;6245706;22;20032;-59
2021/10/25 00:42:26;;;;;;;37.88;16.98;;;;;;;;;;6245252;22;20012;-59
2021/10/25 00:44:52;;;;;;;33.67;15.73;;;;;;;;;;6245904;23;20008;-59
2021/10/25 00:47:18;;;;;;;25.42;13.68;;;;;;;;;;6245416;22;20012;-59
2021/10/25 00:49:44;;;;;;;23.45;12.63;;;;;;;;;;6245842;22;20024;-59
2021/10/25 00:52:11;;;;;;;19.20;10.55;;;;;;;;;;6244224;23;20007;-59
2021/10/25 00:54:36;;;;;;;24.20;13.35;;;;;;;;;;6245638;23;20004;-59
2021/10/25 00:57:03;;;;;;;24.42;14.10;;;;;;;;;;6245490;23;19992;-59
2021/10/25 00:59:30;;;;;;;20.27;11.43;;;;;;;;;;6245435;23;20107;-59
2021/10/25 01:01:55;;;;;;;20.35;11.63;;;;;;;;;;6245762;22;20039;-59
2021/10/25 01:04:21;;;;;;;14.90;9.20;;;;;;;;;;6244113;23;20375;-59
2021/10/25 01:06:48;;;;;;;13.80;8.05;;;;;;;;;;6245628;22;20075;-59
2021/10/25 01:09:14;;;;;;;15.07;8.63;;;;;;;;;;6243992;23;20008;-59
2021/10/25 01:11:41;;;;;;;12.25;8.30;;;;;;;;;;6243805;23;20007;-59
2021/10/25 01:14:08;;;;;;;16.23;9.05;;;;;;;;;;6243983;23;20058;-59
2021/10/25 01:16:34;;;;;;;15.50;9.00;;;;;;;;;;6244057;23;20000;-59
2021/10/25 01:19:01;;;;;;;14.43;8.77;;;;;;;;;;6243921;23;20000;-59
2021/10/25 01:21:26;;;;;;;15.98;8.93;;;;;;;;;;6244044;23;20077;-59
2021/10/25 01:23:53;;;;;;;12.85;7.97;;;;;;;;;;6245157;23;20012;-59
2021/10/25 01:26:21;;;;;;;16.55;8.35;;;;;;;;;;6245723;23;20011;-59
2021/10/25 01:28:48;;;;;;;12.35;8.10;;;;;;;;;;6247131;22;20008;-59
2021/10/25 01:31:15;;;;;;;12.52;7.75;;;;;;;;;;6247409;22;20477;-59
2021/10/25 01:33:43;;;;;;;14.20;8.00;;;;;;;;;;6245622;23;20451;-59
2021/10/25 01:36:08;;;;;;;14.00;8.18;;;;;;;;;;6247268;22;20019;-59
2021/10/25 01:38:36;;;;;;;12.63;7.93;;;;;;;;;;6245655;23;20028;-59
2021/10/25 01:41:02;;;;;;;11.98;7.35;;;;;;;;;;6245743;23;20359;-59
2021/10/25 01:43:27;;;;;;;12.90;8.15;;;;;;;;;;6245091;23;20050;-59
2021/10/25 01:45:53;;;;;;;11.77;8.05;;;;;;;;;;6247338;23;20313;-59
2021/10/25 01:48:19;;;;;;;13.07;8.23;;;;;;;;;;6220182;23;20055;-59
2021/10/25 01:50:44;;;;;;;12.73;8.25;;;;;;;;;;6245695;23;20000;-59
2021/10/25 01:53:11;;;;;;;15.90;9.60;;;;;;;;;;6247070;23;20082;-59
2021/10/25 01:55:43;;;;;;;26.23;16.27;;;;;;;;;;6245507;23;20333;-59
2021/10/25 01:58:09;;;;;;;30.17;21.45;;;;;;;;;;6245512;23;20004;-59
2021/10/25 02:00:35;;;;;;;32.72;22.55;;;;;;;;;;6245397;23;20011;-60
2021/10/25 02:03:02;;;;;;;28.63;18.05;;;;;;;;;;6245078;23;20012;-59
2021/10/25 02:05:41;;;;;;;40.92;20.95;;;;;;;;;;6245319;23;20004;-60
2021/10/25 02:08:08;;;;;;;32.63;19.02;;;;;;;;;;6245551;23;20061;-59
2021/10/25 02:10:46;;;;;;;22.15;13.85;;;;;;;;;;6245549;23;20364;-59
2021/10/25 02:13:15;;;;;;;51.05;18.90;;;;;;;;;;6246973;22;20007;-60
2021/10/25 02:15:42;;;;;;;50.28;17.63;;;;;;;;;;6245451;23;19996;-59
2021/10/25 02:18:07;;;;;;;30.60;16.90;;;;;;;;;;6245069;23;20004;-60
2021/10/25 02:20:33;;;;;;;21.42;14.25;;;;;;;;;;6245300;23;20004;-59
2021/10/25 02:22:59;;;;;;;18.77;10.60;;;;;;;;;;6245084;23;20500;-60
2021/10/25 02:25:29;;;;;;;20.48;11.65;;;;;;;;;;6245135;23;20000;-58
2021/10/25 02:28:02;;;;;;;24.42;13.02;;;;;;;;;;6245386;23;20310;-59
2021/10/25 02:30:29;;;;;;;16.70;9.48;;;;;;;;;;6245032;23;20015;-59
2021/10/25 02:32:58;;;;;;;14.05;7.97;;;;;;;;;;6245240;23;20317;-60
2021/10/25 02:35:24;;;;;;;14.02;8.18;;;;;;;;;;6244686;23;20018;-60
2021/10/25 02:37:49;;;;;;;16.95;9.00;;;;;;;;;;6244558;23;20079;-60
2021/10/25 02:40:16;;;;;;;23.25;9.93;;;;;;;;;;6219751;23;20031;-59
2021/10/25 02:42:41;;;;;;;24.67;13.85;;;;;;;;;;6245992;22;20357;-58
2021/10/25 02:45:07;;;;;;;35.63;18.73;;;;;;;;;;6219725;23;20012;-59
2021/10/25 02:47:32;;;;;;;40.15;20.58;;;;;;;;;;6246439;23;20009;-59
2021/10/25 02:50:03;;;;;;;32.72;14.77;;;;;;;;;;6219680;23;20507;-59
2021/10/25 02:52:30;;;;;;;41.70;19.65;;;;;;;;;;6219478;23;19997;-59
2021/10/25 02:54:58;;;;;;;70.07;34.50;;;;;;;;;;6246383;23;20412;-60
2021/10/25 02:57:23;;;;;;;60.42;26.27;;;;;;;;;;6219468;23;20031;-60
2021/10/25 02:59:51;;;;;;;35.95;15.40;;;;;;;;;;6219571;23;20529;-60
2021/10/25 03:02:16;;;;;;;339.88;123.63;;;;;;;;;;6219592;23;20000;-59
2021/10/25 03:04:42;;;;;;;239.93;85.13;;;;;;;;;;6246161;23;20004;-59
2021/10/25 03:07:08;;;;;;;79.20;33.30;;;;;;;;;;6219267;23;20327;-59
2021/10/25 03:09:40;;;;;;;45.85;21.27;;;;;;;;;;6218987;23;20012;-59
2021/10/25 03:12:06;;;;;;;26.27;13.10;;;;;;;;;;6246164;23;20336;-57
2021/10/25 03:14:32;;;;;;;41.80;19.95;;;;;;;;;;6219236;23;19996;-57
2021/10/25 03:17:01;;;;;;;27.33;14.57;;;;;;;;;;6219589;23;20365;-57
2021/10/25 03:19:27;;;;;;;30.05;16.50;;;;;;;;;;6219374;23;20007;-57
2021/10/25 03:21:53;;;;;;;24.85;13.15;;;;;;;;;;6219358;23;20019;-57
2021/10/25 03:24:19;;;;;;;13.65;7.85;;;;;;;;;;6219176;23;20000;-57
2021/10/25 03:26:46;;;;;;;10.60;7.10;;;;;;;;;;6219375;23;20115;-57
2021/10/25 03:29:12;;;;;;;10.82;7.28;;;;;;;;;;6244529;23;20089;-58
2021/10/25 03:31:39;;;;;;;80.20;35.67;;;;;;;;;;6193654;23;20008;-57
2021/10/25 03:34:04;;;;;;;33.47;20.50;;;;;;;;;;6244375;23;20421;-58
2021/10/25 03:36:33;;;;;;;46.38;23.60;;;;;;;;;;6219174;23;20012;-57
2021/10/25 03:38:59;;;;;;;91.97;41.50;;;;;;;;;;6244566;23;20023;-57
2021/10/25 03:41:33;;;;;;;37.20;19.23;;;;;;;;;;6244072;23;20007;-57
2021/10/25 03:44:15;;;;;;;13.27;7.22;;;;;;;;;;6244540;23;20467;-57
2021/10/25 03:46:49;;;;;;;9.90;7.28;;;;;;;;;;6244367;23;20008;-59
2021/10/25 04:27:48;;;;;;;17.85;9.85;;;;;;;;;;6244366;23;20016;-59
2021/10/25 04:30:15;;;;;;;19.42;10.07;;;;;;;;;;6244188;23;20360;-59
2021/10/25 04:32:41;;;;;;;21.17;10.45;;;;;;;;;;6244198;23;20463;-59
2021/10/25 04:35:18;;;;;;;18.85;10.52;;;;;;;;;;6244641;23;20007;-59
2021/10/25 04:38:03;;;;;;;23.45;13.10;;;;;;;;;;6245984;23;20019;-59
2021/10/25 04:40:29;;;;;;;21.27;11.48;;;;;;;;;;6244184;23;20011;-59
2021/10/25 04:42:58;;;;;;;29.23;18.23;;;;;;;;;;6243600;23;20043;-59
2021/10/25 04:45:23;;;;;;;24.17;14.43;;;;;;;;;;6244049;23;20011;-60
2021/10/25 04:47:58;;;;;;;20.17;11.65;;;;;;;;;;6244053;23;20000;-59
2021/10/25 04:50:59;;;;;;;22.77;12.77;;;;;;;;;;6235497;23;20321;-60
2021/10/25 04:53:41;;;;;;;26.42;14.25;;;;;;;;;;6244268;23;20031;-60
2021/10/25 04:56:08;;;;;;;20.70;12.35;;;;;;;;;;6243971;23;20074;-60
2021/10/25 04:58:33;;;;;;;19.13;11.75;;;;;;;;;;6246822;22;20352;-60
2021/10/25 05:00:59;;;;;;;19.90;11.43;;;;;;;;;;6247564;23;20030;-60
2021/10/25 05:03:24;;;;;;;19.23;12.48;;;;;;;;;;6245966;23;20000;-59
2021/10/25 05:05:50;;;;;;;19.83;12.05;;;;;;;;;;6245840;23;20012;-60
2021/10/25 05:08:15;;;;;;;17.98;10.65;;;;;;;;;;6247685;22;20000;-60
2021/10/25 05:10:41;;;;;;;29.65;12.02;;;;;;;;;;6245782;23;20099;-60
2021/10/25 05:13:07;;;;;;;20.17;12.05;;;;;;;;;;6246052;23;20515;-59
2021/10/25 05:15:33;;;;;;;27.27;16.27;;;;;;;;;;6246126;23;20329;-60
2021/10/25 05:17:59;;;;;;;56.65;30.52;;;;;;;;;;6245860;23;20305;-60
2021/10/25 05:20:24;;;;;;;32.08;18.77;;;;;;;;;;6245736;23;20018;-60
2021/10/25 05:22:50;;;;;;;24.35;13.52;;;;;;;;;;6245717;23;20383;-60
2021/10/25 05:25:16;;;;;;;20.58;11.82;;;;;;;;;;6245721;23;20012;-60
2021/10/25 05:27:41;;;;;;;21.00;11.80;;;;;;;;;;6247286;22;20433;-60
2021/10/25 05:30:07;;;;;;;24.42;13.20;;;;;;;;;;6247290;22;20050;-59
2021/10/25 05:32:33;;;;;;;21.70;10.60;;;;;;;;;;6245638;23;20075;-60
2021/10/25 05:35:00;;;;;;;25.63;13.77;;;;;;;;;;6245688;23;20080;-60
2021/10/25 05:37:27;;;;;;;63.65;36.15;;;;;;;;;;6245612;23;19992;-60
2021/10/25 05:39:56;;;;;;;63.95;32.67;;;;;;;;;;6245682;23;20004;-60
2021/10/25 05:42:24;;;;;;;23.42;12.50;;;;;;;;;;6245211;23;20495;-60
2021/10/25 05:44:50;;;;;;;24.88;13.60;;;;;;;;;;6247097;22;20004;-60
2021/10/25 05:47:15;;;;;;;27.38;15.70;;;;;;;;;;6247055;22;20004;-60
2021/10/25 05:49:41;;;;;;;37.92;19.17;;;;;;;;;;6245437;23;20027;-60
2021/10/25 05:52:07;;;;;;;34.17;18.27;;;;;;;;;;6245467;23;20435;-60
2021/10/25 05:54:34;;;;;;;27.95;16.17;;;;;;;;;;6247245;23;20001;-60
2021/10/25 05:57:08;;;;;;;23.95;15.52;;;;;;;;;;6245617;23;20011;-60
2021/10/25 05:59:36;;;;;;;27.92;17.15;;;;;;;;;;6245430;23;20377;-61
2021/10/25 06:04:34;;;;;;;31.35;19.20;;;;;;;;;;6245630;23;20023;-61
2021/10/25 06:07:20;;;;;;;42.55;26.90;;;;;;;;;;6230995;23;20329;-61
2021/10/25 06:09:46;;;;;;;35.90;22.23;;;;;;;;;;6244539;23;20008;-61
2021/10/25 06:12:17;;;;;;;26.67;15.85;;;;;;;;;;6244731;23;19996;-61
2021/10/25 06:15:10;;;;;;;24.40;15.77;;;;;;;;;;6242796;22;20016;-61
2021/10/25 06:20:10;;;;;;;;;;;;;;;;;;6245828;23;20527;-61
2021/10/25 06:22:38;;;;;;;27.02;16.00;;;;;;;;;;6245495;23;19907;-61
2021/10/25 06:25:10;;;;;;;41.58;22.23;;;;;;;;;;6245373;23;20494;-61
2021/10/25 06:27:38;;;;;;;33.35;20.73;;;;;;;;;;6245125;23;20061;-61
2021/10/25 06:30:04;;;;;;;27.45;15.98;;;;;;;;;;6244926;23;20008;-61
2021/10/25 06:32:30;;;;;;;28.80;15.35;;;;;;;;;;6245267;23;20004;-61
2021/10/25 06:34:58;;;;;;;25.13;15.43;;;;;;;;;;6245197;23;20004;-61
2021/10/25 06:40:20;;;;;;;21.98;13.70;;;;;;;;;;6245693;23;20016;-61
2021/10/25 06:42:47;;;;;;;20.33;13.40;;;;;;;;;;6245016;23;20016;-61
2021/10/25 06:45:15;;;;;;;45.35;24.25;;;;;;;;;;6245053;23;20035;-61
2021/10/25 06:47:44;;;;;;;30.40;17.00;;;;;;;;;;6244704;23;20008;-61
2021/10/25 06:50:10;;;;;;;25.20;15.02;;;;;;;;;;6244759;23;20008;-61
2021/10/25 06:52:46;;;;;;;33.33;19.90;;;;;;;;;;6245014;23;20023;-61
2021/10/25 06:55:13;;;;;;;31.55;18.38;;;;;;;;;;6244810;23;20004;-61
2021/10/25 06:57:44;;;;;;;35.72;20.20;;;;;;;;;;6244903;23;19996;-61
2021/10/25 07:00:13;;;;;;;50.60;26.75;;;;;;;;;;6218852;23;20012;-61
2021/10/25 07:02:39;;;;;;;93.30;48.65;;;;;;;;;;6245095;23;20066;-61
2021/10/25 07:05:09;;;;;;;85.05;44.03;;;;;;;;;;6219540;23;20014;-61
2021/10/25 07:07:35;;;;;;;83.38;37.78;;;;;;;;;;6219272;23;20083;-61
2021/10/25 07:10:04;;;;;;;73.90;33.13;;;;;;;;;;6219604;23;20095;-61
2021/10/25 07:12:33;;;;;;;68.97;30.88;;;;;;;;;;6219490;23;20004;-61
2021/10/25 07:15:00;;;;;;;64.18;29.40;;;;;;;;;;6244874;23;20004;-61
2021/10/25 07:17:45;;;;;;;62.65;26.70;;;;;;;;;;6219461;23;20378;-61
2021/10/25 08:10:14;;;;;;;17.25;8.73;;;;;;;;;;6244312;23;20008;-61
2021/10/25 08:12:51;;;;;;;24.90;11.55;;;;;;;;;;6244413;23;20000;-61
2021/10/25 08:15:23;;;;;;;26.52;12.35;;;;;;;;;;6244328;23;20027;-61
2021/10/25 08:17:53;;;;;;;16.45;9.38;;;;;;;;;;6244202;23;20429;-61
2021/10/25 08:20:19;;;;;;;21.52;10.68;;;;;;;;;;6244238;23;20016;-60
2021/10/25 08:22:45;;;;;;;18.60;9.57;;;;;;;;;;6244084;23;20000;-60
2021/10/25 08:25:11;;;;;;;22.95;10.93;;;;;;;;;;6244126;23;20328;-60
2021/10/25 08:28:02;;;;;;;18.08;9.90;;;;;;;;;;6243881;23;20356;-60
2021/10/25 08:30:28;;;;;;;15.07;8.63;;;;;;;;;;6243779;23;20014;-60
2021/10/25 08:40:45;;;;;;;25.55;10.88;;;;;;;;;;6246268;23;20463;-60
2021/10/25 08:43:13;;;;;;;14.18;8.15;;;;;;;;;;6245840;23;20055;-60
2021/10/25 08:45:45;;;;;;;17.67;9.57;;;;;;;;;;6246261;23;20091;-60
2021/10/25 08:48:10;;;;;;;;;;;;;;;;;;6221272;23;20087;-60
2021/10/25 08:50:36;;;;;;;18.08;8.60;;;;;;;;;;6245923;23;20293;-60
2021/10/25 08:53:10;;;;;;;17.33;9.00;;;;;;;;;;6246139;23;20005;-60
2021/10/25 08:55:46;;;;;;;18.65;9.20;;;;;;;;;;6220787;23;20428;-60
2021/10/25 08:58:13;;;;;;;21.95;10.90;;;;;;;;;;6247576;23;20071;-60
2021/10/25 09:00:42;;;;;;;35.45;16.00;;;;;;;;;;6245933;23;20365;-60
2021/10/25 09:03:20;;;;;;;34.30;15.85;;;;;;;;;;6246272;23;20440;-60
2021/10/25 09:05:52;;;;;;;18.20;9.95;;;;;;;;;;6246047;23;20019;-60
2021/10/25 09:08:18;;;;;;;12.30;6.70;;;;;;;;;;6246047;23;20384;-60
2021/10/25 09:10:45;;;;;;;12.77;7.82;;;;;;;;;;6220459;23;19996;-60
2021/10/25 09:13:17;;;;;;;10.70;6.57;;;;;;;;;;6220604;23;20011;-60
2021/10/25 09:15:50;;;;;;;19.92;9.18;;;;;;;;;;6220676;23;20097;-60
2021/10/25 09:18:40;;;;;;;13.25;7.35;;;;;;;;;;6190066;23;20013;-60
2021/10/25 09:21:10;;;;;;;11.00;6.32;;;;;;;;;;6220648;23;20012;-60
2021/10/25 09:23:37;;;;;;;14.15;7.07;;;;;;;;;;6220320;23;20363;-60
2021/10/25 09:26:04;;;;;;;26.95;12.02;;;;;;;;;;6220422;23;20004;-60
2021/10/25 09:28:35;;;;;;;12.23;6.85;;;;;;;;;;6220471;23;20000;-60
2021/10/25 09:31:02;;;;;;;13.25;6.93;;;;;;;;;;6220236;23;20012;-60
2021/10/25 09:33:36;;;;;;;16.67;7.03;;;;;;;;;;6220256;23;20000;-60
2021/10/25 09:36:13;;;;;;;17.98;8.13;;;;;;;;;;6220626;23;20454;-60
2021/10/25 09:49:28;;;;;;;15.57;6.63;;;;;;;;;;6220446;23;20008;-60
2021/10/25 09:51:55;;;;;;;25.15;9.38;;;;;;;;;;6219739;23;20506;-60
2021/10/25 09:54:22;;;;;;;23.13;9.18;;;;;;;;;;6220315;23;19996;-60
2021/10/25 09:57:03;;;;;;;11.10;6.63;;;;;;;;;;6220258;23;20102;-60
2021/10/25 09:59:49;;;;;;;12.45;6.93;;;;;;;;;;6199549;23;20348;-60
2021/10/25 10:02:22;;;;;;;25.15;9.68;;;;;;;;;;6220260;23;20360;-60
2021/10/25 10:04:56;;;;;;;17.17;7.45;;;;;;;;;;6219888;23;20008;-60
2021/10/25 10:07:25;;;;;;;9.60;5.70;;;;;;;;;;6220247;23;20028;-60
2021/10/25 10:09:58;;;;;;;11.63;5.47;;;;;;;;;;6219976;23;20012;-60
2021/10/25 10:12:25;;;;;;;13.90;6.93;;;;;;;;;;6219986;23;20019;-60
2021/10/25 10:15:01;;;;;;;13.18;5.75;;;;;;;;;;6219850;23;20333;-60
2021/10/25 10:17:34;;;;;;;10.32;5.18;;;;;;;;;;6220193;23;20004;-60
2021/10/25 10:20:04;;;;;;;13.90;6.30;;;;;;;;;;6219927;23;20000;-60
2021/10/25 10:22:46;;;;;;;17.83;7.47;;;;;;;;;;6220121;23;20004;-60
2021/10/25 10:25:28;;;;;;;14.50;6.80;;;;;;;;;;6220334;23;20004;-60
2021/10/25 10:28:01;;;;;;;10.30;5.78;;;;;;;;;;6219836;23;20091;-60
2021/10/25 10:30:28;;;;;;;9.45;4.93;;;;;;;;;;6219600;23;20425;-60
2021/10/25 10:33:03;;;;;;;9.55;4.55;;;;;;;;;;6219948;23;20359;-61
2021/10/25 10:35:40;;;;;;;11.20;5.38;;;;;;;;;;6219796;23;20086;-61
2021/10/25 10:38:06;;;;;;;15.00;6.63;;;;;;;;;;6246810;23;20012;-60
2021/10/25 10:41:10;;;;;;;11.20;5.18;;;;;;;;;;6245764;23;20008;-60
2021/10/25 10:44:12;;;;;;;9.52;4.53;;;;;;;;;;6125086;23;20022;-61
2021/10/25 10:47:00;;;;;;;7.90;4.22;;;;;;;;;;6201410;23;20103;-60
2021/10/25 10:49:30;;;;;;;12.60;5.50;;;;;;;;;;6246735;23;20004;-60
2021/10/25 10:52:02;;;;;;;12.57;4.70;;;;;;;;;;6246465;23;20314;-61
2021/10/25 10:54:38;;;;;;;12.38;5.88;;;;;;;;;;6246456;23;20380;-61
2021/10/25 10:57:08;;;;;;;9.35;4.32;;;;;;;;;;6246077;23;20061;-61
2021/10/25 10:59:36;;;;;;;14.80;5.55;;;;;;;;;;6246555;23;20133;-61
2021/10/25 11:02:01;;;;;;;6.38;4.20;;;;;;;;;;6246484;23;20053;-61
2021/10/25 11:04:36;;;;;;;18.67;4.25;;;;;;;;;;6246406;23;20065;-61
2021/10/25 11:07:03;;;;;;;8.45;3.75;;;;;;;;;;6246410;23;20004;-61
2021/10/25 11:09:32;;;;;;;6.82;4.43;;;;;;;;;;6246134;23;20058;-61
2021/10/25 11:12:02;;;;;;;10.77;4.10;;;;;;;;;;6246051;23;20012;-61
2021/10/25 11:14:29;;;;;;;11.95;5.20;;;;;;;;;;6246541;23;20091;-60
2021/10/25 11:17:14;;;;;;;12.13;5.72;;;;;;;;;;6219513;23;20108;-61
2021/10/25 11:19:44;;;;;;;11.95;5.50;;;;;;;;;;6246333;23;20000;-61
2021/10/25 11:22:09;;;;;;;7.40;4.47;;;;;;;;;;6246047;23;20004;-60
2021/10/25 11:24:35;;;;;;;6.40;3.47;;;;;;;;;;6246137;23;20110;-61
2021/10/25 11:27:00;;;;;;;17.35;7.47;;;;;;;;;;6219244;23;20004;-61
2021/10/25 11:29:27;;;;;;;6.55;3.72;;;;;;;;;;6246018;23;20436;-60
2021/10/25 11:31:54;;;;;;;11.05;5.45;;;;;;;;;;6245971;23;20029;-60
2021/10/25 11:34:25;;;;;;;5.97;3.35;;;;;;;;;;6246046;23;20036;-60
2021/10/25 11:37:06;;;;;;;11.07;5.72;;;;;;;;;;6246183;23;20004;-60
2021/10/25 11:39:36;;;;;;;3.92;2.53;;;;;;;;;;6245801;23;20004;-61
2021/10/25 11:42:04;;;;;;;13.63;5.80;;;;;;;;;;6245820;22;20016;-61
2021/10/25 11:44:33;;;;;;;7.78;4.00;;;;;;;;;;6246071;23;20015;-60
2021/10/25 11:46:58;;;;;;;5.00;2.92;;;;;;;;;;6246014;23;20012;-61
2021/10/25 11:49:25;;;;;;;7.35;3.90;;;;;;;;;;6245757;23;20004;-61
2021/10/25 11:51:55;;;;;;;8.65;5.07;;;;;;;;;;6245775;23;20091;-61
2021/10/25 11:54:21;;;;;;;9.40;5.15;;;;;;;;;;6245970;23;20035;-61
2021/10/25 11:56:50;;;;;;;7.80;4.05;;;;;;;;;;6246001;23;20471;-60
2021/10/25 11:59:17;;;;;;;12.45;5.57;;;;;;;;;;6245957;23;20083;-61
2021/10/25 12:01:43;;;;;;;9.48;5.05;;;;;;;;;;6245806;23;20004;-60
2021/10/25 12:04:09;;;;;;;7.53;4.82;;;;;;;;;;6219005;23;20004;-60
2021/10/25 12:06:35;;;;;;;10.88;5.75;;;;;;;;;;6218995;23;20032;-61
2021/10/25 12:09:03;;;;;;;20.42;10.63;;;;;;;;;;6245933;23;20340;-60
2021/10/25 12:12:02;;;;;;;9.30;4.60;;;;;;;;;;6245723;23;20000;-60
2021/10/25 12:14:31;;;;;;;8.63;4.70;;;;;;;;;;6245983;23;20451;-61
2021/10/25 12:16:57;;;;;;;7.63;3.90;;;;;;;;;;6245757;23;20483;-61
2021/10/25 12:19:23;;;;;;;16.10;7.13;;;;;;;;;;6245876;23;20000;-60
2021/10/25 12:21:49;;;;;;;23.25;9.30;;;;;;;;;;6245817;23;20011;-60
2021/10/25 12:24:15;;;;;;;19.02;8.52;;;;;;;;;;6245674;23;20004;-60
2021/10/25 12:26:41;;;;;;;9.57;4.45;;;;;;;;;;6245724;23;20007;-60
2021/10/25 12:29:19;;;;;;;9.27;4.75;;;;;;;;;;6245521;23;20096;-61
2021/10/25 12:31:46;;;;;;;10.90;4.88;;;;;;;;;;6245601;23;20004;-60
2021/10/25 12:34:12;;;;;;;9.60;4.93;;;;;;;;;;6245489;23;20096;-60
2021/10/25 12:36:40;;;;;;;8.15;4.20;;;;;;;;;;6245604;23;20087;-60
2021/10/25 12:39:06;;;;;;;5.97;3.92;;;;;;;;;;6245758;23;20431;-60
2021/10/25 12:41:42;;;;;;;5.18;4.10;;;;;;;;;;6245399;23;20010;-61
2021/10/25 12:44:08;;;;;;;6.85;4.13;;;;;;;;;;6246009;23;20093;-60
2021/10/25 12:46:35;;;;;;;6.18;4.00;;;;;;;;;;6218765;23;20379;-60
2021/10/25 12:49:01;;;;;;;7.82;4.20;;;;;;;;;;6245563;23;20038;-60
2021/10/25 12:51:37;;;;;;;8.63;4.60;;;;;;;;;;6245514;23;19996;-60
2021/10/25 12:54:09;;;;;;;6.07;3.70;;;;;;;;;;6245700;23;20038;-60
2021/10/25 12:56:35;;;;;;;7.40;4.10;;;;;;;;;;6245574;23;20004;-60
2021/10/25 12:59:10;;;;;;;5.88;4.25;;;;;;;;;;6245666;23;20066;-60
2021/10/25 13:01:36;;;;;;;6.45;4.03;;;;;;;;;;6245526;23;20004;-60
2021/10/25 13:04:03;;;;;;;4.90;3.28;;;;;;;;;;6245531;23;20007;-60
2021/10/25 13:06:33;;;;;;;5.63;4.00;;;;;;;;;;6245521;23;20447;-61
2021/10/25 13:09:10;;;;;;;6.80;3.65;;;;;;;;;;6245521;23;20503;-60
2021/10/25 13:11:36;;;;;;;9.38;4.65;;;;;;;;;;6245448;23;20016;-60
2021/10/25 13:14:02;;;;;;;5.78;3.70;;;;;;;;;;6245551;23;19996;-60
2021/10/25 13:16:46;;;;;;;10.68;4.22;;;;;;;;;;6245436;23;20443;-61
2021/10/25 13:19:13;;;;;;;7.05;3.15;;;;;;;;;;6246542;23;20054;-61
2021/10/25 13:21:39;;;;;;;5.20;3.05;;;;;;;;;;6247476;23;19996;-61
2021/10/25 13:24:04;;;;;;;6.43;3.78;;;;;;;;;;6247319;23;20451;-61
2021/10/25 13:26:30;;;;;;;5.45;3.65;;;;;;;;;;6246850;23;20444;-61
2021/10/25 13:28:56;;;;;;;5.55;3.83;;;;;;;;;;6247433;23;20012;-61
2021/10/25 13:31:21;;;;;;;6.15;3.45;;;;;;;;;;6246454;23;20004;-61
2021/10/25 13:33:47;;;;;;;5.35;3.85;;;;;;;;;;6246385;23;20494;-60
2021/10/25 13:36:13;;;;;;;3.88;3.42;;;;;;;;;;6246781;23;20000;-61
2021/10/25 13:38:39;;;;;;;5.30;4.00;;;;;;;;;;6246396;23;20004;-60
2021/10/25 13:41:04;;;;;;;8.40;4.05;;;;;;;;;;6246834;23;20000;-60
2021/10/25 13:43:30;;;;;;;6.57;4.10;;;;;;;;;;6246729;23;20045;-60
2021/10/25 13:45:55;;;;;;;9.60;4.32;;;;;;;;;;6246680;23;20011;-60
2021/10/25 13:48:21;;;;;;;6.80;3.67;;;;;;;;;;6246785;23;20008;-60
2021/10/25 13:50:46;;;;;;;6.70;3.97;;;;;;;;;;6246480;23;19996;-61
2021/10/25 13:53:12;;;;;;;7.47;4.00;;;;;;;;;;6246562;23;20075;-60
2021/10/25 13:55:37;;;;;;;5.57;4.15;;;;;;;;;;6246167;23;20000;-61
2021/10/25 13:58:04;;;;;;;7.18;5.15;;;;;;;;;;6246559;23;20011;-60
2021/10/25 14:00:29;;;;;;;7.65;4.78;;;;;;;;;;6246177;23;20000;-60
2021/10/25 14:02:57;;;;;;;8.15;5.22;;;;;;;;;;6246926;23;20451;-60
2021/10/25 14:05:23;;;;;;;9.57;5.95;;;;;;;;;;6246345;23;20043;-60
2021/10/25 14:07:49;;;;;;;8.13;5.30;;;;;;;;;;6247361;23;20015;-61
2021/10/25 14:12:44;;;;;;;9.35;4.00;;;;;;;;;;6242596;23;20368;-61
2021/10/25 14:15:32;;;;;;;6.65;3.92;;;;;;;;;;6242598;23;20000;-60
2021/10/25 14:17:58;;;;;;;6.38;3.88;;;;;;;;;;6241234;23;20038;-60
2021/10/25 14:20:26;;;;;;;9.93;4.43;;;;;;;;;;6240262;23;20035;-60
2021/10/25 14:22:54;;;;;;;15.93;8.55;;;;;;;;;;6240378;23;20007;-60
2021/10/25 14:25:19;;;;;;;14.10;9.55;;;;;;;;;;6240639;23;20031;-60
2021/10/25 14:27:45;;;;;;;19.30;12.70;;;;;;;;;;6240525;23;20012;-60
2021/10/25 14:30:10;;;;;;;16.98;10.73;;;;;;;;;;6239409;23;20463;-60
2021/10/25 14:32:36;;;;;;;9.68;5.72;;;;;;;;;;6241000;23;20066;-60
2021/10/25 14:35:03;;;;;;;10.82;6.72;;;;;;;;;;6240321;23;20002;-60
2021/10/25 14:37:32;;;;;;;8.50;5.03;;;;;;;;;;6240763;23;20638;-60
2021/10/25 14:39:58;;;;;;;23.88;5.80;;;;;;;;;;6240050;23;19996;-60
2021/10/25 14:42:30;;;;;;;21.63;7.15;;;;;;;;;;6239677;23;20023;-60
2021/10/25 14:55:35;;;;;;;15.32;10.57;;;;;;;;;;6240943;23;20008;-60
2021/10/25 14:57:52;;;;;;;29.15;14.35;;;;;;;;;;6240239;23;20015;-60
2021/10/25 15:00:17;;;;;;;30.77;16.33;;;;;;;;;;6240203;23;20488;-60
2021/10/25 15:02:43;;;;;;;43.28;22.92;;;;;;;;;;6240274;23;20388;-60
2021/10/25 15:05:12;;;;;;;45.13;24.52;;;;;;;;;;6240223;23;20334;-60
2021/10/25 15:07:42;;;;;;;40.10;23.15;;;;;;;;;;6240404;23;20032;-60
2021/10/25 15:10:07;;;;;;;37.83;19.90;;;;;;;;;;6240223;23;20059;-60
2021/10/25 15:12:33;;;;;;;31.73;17.88;;;;;;;;;;6240447;23;20000;-58
2021/10/25 15:14:58;;;;;;;22.15;13.50;;;;;;;;;;6240189;23;20012;-57
2021/10/25 15:17:24;;;;;;;25.45;15.73;;;;;;;;;;6239712;23;20003;-59
2021/10/25 15:19:49;;;;;;;42.47;19.90;;;;;;;;;;6240406;23;20019;-58
2021/10/25 15:22:17;;;;;;;36.83;21.20;;;;;;;;;;6240386;23;20491;-58
2021/10/25 15:24:47;;;;;;;47.33;24.08;;;;;;;;;;6240274;23;20508;-58
2021/10/25 15:27:16;;;;;;;44.30;24.02;;;;;;;;;;6239788;23;20015;-58
2021/10/25 15:29:45;;;;;;;39.13;20.55;;;;;;;;;;6240146;23;20003;-58
2021/10/25 15:32:11;;;;;;;45.90;24.65;;;;;;;;;;6240120;23;20135;-58
2021/10/25 15:34:38;;;;;;;33.97;18.63;;;;;;;;;;6240250;23;20000;-58
2021/10/25 15:37:04;;;;;;;28.10;15.45;;;;;;;;;;6240317;23;20062;-57
2021/10/25 15:39:29;;;;;;;21.50;13.02;;;;;;;;;;6240322;23;19999;-58
2021/10/25 15:41:55;;;;;;;23.65;11.75;;;;;;;;;;6239484;23;20385;-59
2021/10/25 15:44:21;;;;;;;35.75;14.68;;;;;;;;;;6240400;23;20016;-58
2021/10/25 15:46:46;;;;;;;43.47;16.92;;;;;;;;;;6239859;23;20007;-57
2021/10/25 15:49:12;;;;;;;27.48;13.32;;;;;;;;;;6239948;23;20019;-57
2021/10/25 15:51:38;;;;;;;19.63;11.73;;;;;;;;;;6239195;23;20004;-57
2021/10/25 15:54:05;;;;;;;20.92;12.27;;;;;;;;;;6240348;23;20008;-58
2021/10/25 15:56:32;;;;;;;32.78;15.38;;;;;;;;;;6239804;23;20007;-58
2021/10/25 15:58:58;;;;;;;28.45;13.13;;;;;;;;;;6240250;23;20004;-58
2021/10/25 16:01:23;;;;;;;26.20;12.32;;;;;;;;;;6239793;23;20058;-58
2021/10/25 16:03:49;;;;;;;22.30;11.60;;;;;;;;;;6239731;23;20340;-58
2021/10/25 16:06:14;;;;;;;38.45;20.63;;;;;;;;;;6239907;23;20376;-58
2021/10/25 16:08:40;;;;;;;27.48;15.68;;;;;;;;;;6213036;23;20411;-58
2021/10/25 16:11:06;;;;;;;19.30;9.98;;;;;;;;;;6238946;23;20032;-58
2021/10/25 16:13:32;;;;;;;15.52;8.73;;;;;;;;;;6212659;23;20343;-58
2021/10/25 16:15:57;;;;;;;16.15;10.27;;;;;;;;;;6239468;23;20004;-57
2021/10/25 16:18:23;;;;;;;16.67;9.10;;;;;;;;;;6240137;23;20134;-57
2021/10/25 16:20:50;;;;;;;18.83;10.35;;;;;;;;;;6239746;23;20397;-57
2021/10/25 16:23:17;;;;;;;27.65;12.38;;;;;;;;;;6239852;23;20019;-58
2021/10/25 16:25:46;;;;;;;24.58;11.90;;;;;;;;;;6239600;23;20004;-57
2021/10/25 16:28:11;;;;;;;29.67;13.43;;;;;;;;;;6239376;23;20008;-58
2021/10/25 16:30:37;;;;;;;28.70;13.70;;;;;;;;;;6238392;23;20008;-57
2021/10/25 16:33:03;;;;;;;19.08;11.07;;;;;;;;;;6239742;23;20087;-58
2021/10/25 16:35:29;;;;;;;18.92;10.70;;;;;;;;;;6239927;23;20008;-58
2021/10/25 16:37:55;;;;;;;17.42;9.57;;;;;;;;;;6239745;23;20004;-58
2021/10/25 16:40:20;;;;;;;16.15;8.85;;;;;;;;;;6239052;23;20010;-58
2021/10/25 16:42:46;;;;;;;17.50;10.50;;;;;;;;;;6238727;23;20027;-58